sensor_id;sensor_type;location;lat;lon;timestamp;P1;durP1;ratioP1;P2;durP2;ratioP2
61523;SDS011;47393;38.758;-9.164;2022-12-10T00:01:21;20.10;;;5.45;;
61523;SDS011;47393;38.758;-9.164;2022-12-10T00:03:22;30.08;;;6.60;;
61523;SDS011;47393;38.758;-9.164;2022-12-10T00:05:23;34.45;;;6.18;;
61523;SDS011;47393;38.758;-9.164;2022-12-10T00:07:24;32.30;;;6.20;;
61523;SDS011;47393;38.758;-9.164;2022-12-10T00:09:25;23.25;;;5.55;;
61523;SDS011;47393;38.758;-9.164;2022-12-10T00:11:26;25.02;;;5.45;;
61523;SDS011;47393;38.758;-9.164;2022-12-10T00:13:27;36.05;;;5.72;;
61523;SDS011;47393;38.758;-9.164;2022-12-10T00:15:28;27.45;;;5.57;;
61523;SDS011;47393;38.758;-9.164;2022-12-10T00:17:29;32.13;;;6.57;;
61523;SDS011;47393;38.758;-9.164;2022-12-10T00:19:33;28.98;;;6.05;;
61523;SDS011;47393;38.758;-9.164;2022-12-10T00:21:34;20.35;;;5.22;;
61523;SDS011;47393;38.758;-9.164;2022-12-10T00:23:36;29.92;;;5.13;;
61523;SDS011;47393;38.758;-9.164;2022-12-10T00:25:37;27.08;;;5.10;;
61523;SDS011;47393;38.758;-9.164;2022-12-10T00:27:38;27.52;;;5.35;;
61523;SDS011;47393;38.758;-9.164;2022-12-10T00:29:42;33.35;;;5.45;;
61523;SDS011;47393;38.758;-9.164;2022-12-10T00:31:50;25.58;;;5.60;;
61523;SDS011;47393;38.758;-9.164;2022-12-10T00:33:55;24.65;;;6.00;;
61523;SDS011;47393;38.758;-9.164;2022-12-10T00:36:07;37.35;;;5.93;;
61523;SDS011;47393;38.758;-9.164;2022-12-10T00:38:11;29.95;;;5.78;;
61523;SDS011;47393;38.758;-9.164;2022-12-10T00:40:12;33.00;;;6.40;;
61523;SDS011;47393;38.758;-9.164;2022-12-10T00:42:19;20.77;;;5.13;;
61523;SDS011;47393;38.758;-9.164;2022-12-10T00:44:20;27.27;;;5.55;;
61523;SDS011;47393;38.758;-9.164;2022-12-10T00:46:21;24.75;;;4.93;;
61523;SDS011;47393;38.758;-9.164;2022-12-10T00:48:22;24.10;;;5.60;;
61523;SDS011;47393;38.758;-9.164;2022-12-10T00:50:23;18.20;;;4.93;;
61523;SDS011;47393;38.758;-9.164;2022-12-10T00:52:24;23.83;;;5.43;;
61523;SDS011;47393;38.758;-9.164;2022-12-10T00:54:25;21.95;;;5.13;;
61523;SDS011;47393;38.758;-9.164;2022-12-10T00:56:27;26.02;;;4.95;;
61523;SDS011;47393;38.758;-9.164;2022-12-10T00:58:31;22.85;;;5.05;;
61523;SDS011;47393;38.758;-9.164;2022-12-10T01:00:33;20.85;;;5.38;;
61523;SDS011;47393;38.758;-9.164;2022-12-10T01:02:34;20.48;;;4.72;;
61523;SDS011;47393;38.758;-9.164;2022-12-10T01:04:35;27.15;;;4.53;;
61523;SDS011;47393;38.758;-9.164;2022-12-10T01:06:39;19.75;;;5.13;;
61523;SDS011;47393;38.758;-9.164;2022-12-10T01:08:45;30.15;;;4.93;;
61523;SDS011;47393;38.758;-9.164;2022-12-10T01:10:52;24.08;;;5.00;;
61523;SDS011;47393;38.758;-9.164;2022-12-10T01:12:53;28.05;;;5.10;;
61523;SDS011;47393;38.758;-9.164;2022-12-10T01:14:54;21.75;;;5.03;;
61523;SDS011;47393;38.758;-9.164;2022-12-10T01:16:56;22.52;;;4.63;;
61523;SDS011;47393;38.758;-9.164;2022-12-10T01:18:59;24.53;;;4.90;;
61523;SDS011;47393;38.758;-9.164;2022-12-10T01:21:04;33.13;;;5.47;;
61523;SDS011;47393;38.758;-9.164;2022-12-10T01:23:10;30.42;;;5.90;;
61523;SDS011;47393;38.758;-9.164;2022-12-10T01:25:11;31.25;;;6.00;;
61523;SDS011;47393;38.758;-9.164;2022-12-10T01:27:12;25.92;;;5.43;;
61523;SDS011;47393;38.758;-9.164;2022-12-10T01:29:19;27.35;;;5.50;;
61523;SDS011;47393;38.758;-9.164;2022-12-10T01:31:21;28.67;;;5.70;;
61523;SDS011;47393;38.758;-9.164;2022-12-10T01:33:34;34.42;;;5.45;;
61523;SDS011;47393;38.758;-9.164;2022-12-10T01:35:37;29.65;;;5.28;;
61523;SDS011;47393;38.758;-9.164;2022-12-10T01:37:38;31.58;;;6.50;;
61523;SDS011;47393;38.758;-9.164;2022-12-10T01:39:39;26.05;;;5.70;;
61523;SDS011;47393;38.758;-9.164;2022-12-10T01:41:41;31.95;;;6.10;;
61523;SDS011;47393;38.758;-9.164;2022-12-10T01:43:49;33.33;;;5.82;;
61523;SDS011;47393;38.758;-9.164;2022-12-10T01:45:50;32.65;;;5.90;;
61523;SDS011;47393;38.758;-9.164;2022-12-10T01:47:51;38.33;;;5.65;;
61523;SDS011;47393;38.758;-9.164;2022-12-10T01:49:52;36.58;;;6.47;;
61523;SDS011;47393;38.758;-9.164;2022-12-10T01:51:54;34.15;;;6.25;;
61523;SDS011;47393;38.758;-9.164;2022-12-10T01:53:56;38.25;;;6.60;;
61523;SDS011;47393;38.758;-9.164;2022-12-10T01:55:57;40.50;;;5.85;;
61523;SDS011;47393;38.758;-9.164;2022-12-10T01:57:58;37.17;;;6.10;;
61523;SDS011;47393;38.758;-9.164;2022-12-10T02:00:00;33.72;;;6.07;;
61523;SDS011;47393;38.758;-9.164;2022-12-10T02:04:42;39.55;;;5.78;;
61523;SDS011;47393;38.758;-9.164;2022-12-10T02:06:54;37.58;;;6.10;;
61523;SDS011;47393;38.758;-9.164;2022-12-10T02:11:18;40.85;;;5.53;;
61523;SDS011;47393;38.758;-9.164;2022-12-10T02:15:30;42.72;;;6.47;;
61523;SDS011;47393;38.758;-9.164;2022-12-10T02:17:37;47.53;;;6.43;;
61523;SDS011;47393;38.758;-9.164;2022-12-10T02:21:44;43.55;;;6.57;;
61523;SDS011;47393;38.758;-9.164;2022-12-10T02:24:09;33.40;;;5.80;;
61523;SDS011;47393;38.758;-9.164;2022-12-10T02:30:51;30.60;;;5.63;;
61523;SDS011;47393;38.758;-9.164;2022-12-10T02:32:54;31.00;;;4.95;;
61523;SDS011;47393;38.758;-9.164;2022-12-10T02:34:58;29.50;;;5.20;;
61523;SDS011;47393;38.758;-9.164;2022-12-10T02:37:04;34.05;;;5.82;;
61523;SDS011;47393;38.758;-9.164;2022-12-10T02:39:22;28.63;;;5.63;;
61523;SDS011;47393;38.758;-9.164;2022-12-10T02:41:34;28.67;;;5.55;;
61523;SDS011;47393;38.758;-9.164;2022-12-10T02:43:38;25.83;;;4.85;;
61523;SDS011;47393;38.758;-9.164;2022-12-10T02:45:40;29.88;;;5.85;;
61523;SDS011;47393;38.758;-9.164;2022-12-10T02:47:47;39.55;;;7.00;;
61523;SDS011;47393;38.758;-9.164;2022-12-10T02:49:52;33.88;;;6.25;;
61523;SDS011;47393;38.758;-9.164;2022-12-10T02:52:12;25.50;;;5.05;;
61523;SDS011;47393;38.758;-9.164;2022-12-10T02:54:38;34.88;;;6.65;;
61523;SDS011;47393;38.758;-9.164;2022-12-10T02:56:58;22.85;;;5.07;;
61523;SDS011;47393;38.758;-9.164;2022-12-10T02:59:16;34.63;;;5.72;;
61523;SDS011;47393;38.758;-9.164;2022-12-10T03:01:46;29.00;;;6.40;;
61523;SDS011;47393;38.758;-9.164;2022-12-10T03:03:55;29.48;;;5.07;;
61523;SDS011;47393;38.758;-9.164;2022-12-10T03:06:18;35.42;;;4.88;;
61523;SDS011;47393;38.758;-9.164;2022-12-10T03:08:47;32.70;;;5.63;;
61523;SDS011;47393;38.758;-9.164;2022-12-10T03:13:03;41.72;;;5.40;;
61523;SDS011;47393;38.758;-9.164;2022-12-10T03:15:18;39.30;;;6.05;;
61523;SDS011;47393;38.758;-9.164;2022-12-10T03:17:21;29.73;;;5.95;;
61523;SDS011;47393;38.758;-9.164;2022-12-10T03:19:24;36.60;;;5.93;;
61523;SDS011;47393;38.758;-9.164;2022-12-10T03:21:32;31.58;;;5.43;;
61523;SDS011;47393;38.758;-9.164;2022-12-10T03:23:41;24.42;;;5.35;;
61523;SDS011;47393;38.758;-9.164;2022-12-10T03:25:47;41.17;;;6.15;;
61523;SDS011;47393;38.758;-9.164;2022-12-10T03:27:49;35.28;;;5.43;;
61523;SDS011;47393;38.758;-9.164;2022-12-10T03:29:54;27.67;;;5.03;;
61523;SDS011;47393;38.758;-9.164;2022-12-10T03:31:57;35.80;;;6.22;;
61523;SDS011;47393;38.758;-9.164;2022-12-10T03:33:59;36.90;;;5.63;;
61523;SDS011;47393;38.758;-9.164;2022-12-10T03:36:02;31.88;;;6.55;;
61523;SDS011;47393;38.758;-9.164;2022-12-10T03:38:03;29.42;;;5.97;;
61523;SDS011;47393;38.758;-9.164;2022-12-10T03:40:04;28.15;;;5.32;;
61523;SDS011;47393;38.758;-9.164;2022-12-10T03:42:08;22.58;;;4.78;;
61523;SDS011;47393;38.758;-9.164;2022-12-10T03:44:09;18.60;;;5.18;;
61523;SDS011;47393;38.758;-9.164;2022-12-10T03:46:10;31.35;;;5.80;;
61523;SDS011;47393;38.758;-9.164;2022-12-10T03:48:11;28.45;;;6.05;;
61523;SDS011;47393;38.758;-9.164;2022-12-10T03:50:12;34.17;;;6.22;;
61523;SDS011;47393;38.758;-9.164;2022-12-10T03:52:16;34.28;;;7.40;;
61523;SDS011;47393;38.758;-9.164;2022-12-10T03:54:18;33.70;;;5.13;;
61523;SDS011;47393;38.758;-9.164;2022-12-10T03:56:19;26.08;;;5.05;;
61523;SDS011;47393;38.758;-9.164;2022-12-10T03:58:21;23.88;;;5.20;;
61523;SDS011;47393;38.758;-9.164;2022-12-10T04:00:22;35.33;;;6.28;;
61523;SDS011;47393;38.758;-9.164;2022-12-10T04:02:23;29.25;;;5.45;;
61523;SDS011;47393;38.758;-9.164;2022-12-10T04:04:24;29.42;;;5.47;;
61523;SDS011;47393;38.758;-9.164;2022-12-10T04:06:25;28.20;;;5.43;;
61523;SDS011;47393;38.758;-9.164;2022-12-10T04:08:26;28.73;;;5.43;;
61523;SDS011;47393;38.758;-9.164;2022-12-10T04:10:27;32.38;;;5.95;;
61523;SDS011;47393;38.758;-9.164;2022-12-10T04:12:31;24.40;;;5.38;;
61523;SDS011;47393;38.758;-9.164;2022-12-10T04:14:31;22.47;;;4.43;;
61523;SDS011;47393;38.758;-9.164;2022-12-10T04:16:51;30.88;;;4.93;;
61523;SDS011;47393;38.758;-9.164;2022-12-10T04:18:56;39.40;;;5.57;;
61523;SDS011;47393;38.758;-9.164;2022-12-10T04:21:01;22.92;;;4.65;;
61523;SDS011;47393;38.758;-9.164;2022-12-10T04:23:21;25.48;;;5.15;;
61523;SDS011;47393;38.758;-9.164;2022-12-10T04:25:40;35.40;;;5.95;;
61523;SDS011;47393;38.758;-9.164;2022-12-10T04:27:59;34.10;;;5.38;;
61523;SDS011;47393;38.758;-9.164;2022-12-10T04:30:00;25.83;;;5.07;;
61523;SDS011;47393;38.758;-9.164;2022-12-10T04:32:11;21.05;;;5.10;;
61523;SDS011;47393;38.758;-9.164;2022-12-10T04:34:12;24.50;;;4.60;;
61523;SDS011;47393;38.758;-9.164;2022-12-10T04:36:16;23.45;;;4.93;;
61523;SDS011;47393;38.758;-9.164;2022-12-10T04:38:17;25.80;;;4.82;;
61523;SDS011;47393;38.758;-9.164;2022-12-10T04:40:18;32.05;;;5.18;;
61523;SDS011;47393;38.758;-9.164;2022-12-10T04:42:20;19.95;;;4.30;;
61523;SDS011;47393;38.758;-9.164;2022-12-10T04:44:22;23.70;;;5.97;;
61523;SDS011;47393;38.758;-9.164;2022-12-10T04:46:22;28.15;;;5.97;;
61523;SDS011;47393;38.758;-9.164;2022-12-10T04:48:23;23.58;;;4.63;;
61523;SDS011;47393;38.758;-9.164;2022-12-10T04:50:24;29.02;;;4.97;;
61523;SDS011;47393;38.758;-9.164;2022-12-10T04:52:25;21.92;;;4.35;;
61523;SDS011;47393;38.758;-9.164;2022-12-10T04:54:26;24.50;;;4.18;;
61523;SDS011;47393;38.758;-9.164;2022-12-10T04:56:27;28.17;;;5.10;;
61523;SDS011;47393;38.758;-9.164;2022-12-10T04:58:28;23.98;;;4.10;;
61523;SDS011;47393;38.758;-9.164;2022-12-10T05:00:31;42.47;;;5.15;;
61523;SDS011;47393;38.758;-9.164;2022-12-10T05:02:34;20.83;;;4.28;;
61523;SDS011;47393;38.758;-9.164;2022-12-10T05:04:35;27.80;;;4.75;;
61523;SDS011;47393;38.758;-9.164;2022-12-10T05:06:36;24.90;;;5.20;;
61523;SDS011;47393;38.758;-9.164;2022-12-10T05:08:37;28.42;;;5.18;;
61523;SDS011;47393;38.758;-9.164;2022-12-10T05:10:39;21.98;;;4.20;;
61523;SDS011;47393;38.758;-9.164;2022-12-10T05:12:40;33.45;;;5.45;;
61523;SDS011;47393;38.758;-9.164;2022-12-10T05:14:41;21.70;;;4.18;;
61523;SDS011;47393;38.758;-9.164;2022-12-10T05:16:41;22.77;;;4.03;;
61523;SDS011;47393;38.758;-9.164;2022-12-10T05:18:43;27.00;;;4.15;;
61523;SDS011;47393;38.758;-9.164;2022-12-10T05:20:44;23.40;;;5.20;;
61523;SDS011;47393;38.758;-9.164;2022-12-10T05:22:45;22.08;;;4.47;;
61523;SDS011;47393;38.758;-9.164;2022-12-10T05:25:04;23.75;;;4.70;;
61523;SDS011;47393;38.758;-9.164;2022-12-10T05:29:12;28.65;;;4.82;;
61523;SDS011;47393;38.758;-9.164;2022-12-10T05:31:21;24.52;;;4.70;;
61523;SDS011;47393;38.758;-9.164;2022-12-10T05:33:29;16.35;;;4.32;;
61523;SDS011;47393;38.758;-9.164;2022-12-10T05:35:55;13.82;;;3.83;;
61523;SDS011;47393;38.758;-9.164;2022-12-10T05:38:00;27.85;;;4.70;;
61523;SDS011;47393;38.758;-9.164;2022-12-10T05:40:00;24.23;;;4.63;;
61523;SDS011;47393;38.758;-9.164;2022-12-10T05:42:01;26.70;;;4.90;;
61523;SDS011;47393;38.758;-9.164;2022-12-10T05:44:02;28.77;;;4.72;;
61523;SDS011;47393;38.758;-9.164;2022-12-10T05:46:09;29.65;;;4.75;;
61523;SDS011;47393;38.758;-9.164;2022-12-10T05:48:15;30.55;;;5.13;;
61523;SDS011;47393;38.758;-9.164;2022-12-10T05:50:17;28.15;;;4.65;;
61523;SDS011;47393;38.758;-9.164;2022-12-10T05:52:18;27.08;;;4.57;;
61523;SDS011;47393;38.758;-9.164;2022-12-10T05:54:19;21.15;;;5.15;;
61523;SDS011;47393;38.758;-9.164;2022-12-10T05:56:21;32.22;;;5.10;;
61523;SDS011;47393;38.758;-9.164;2022-12-10T05:58:23;27.10;;;5.18;;
61523;SDS011;47393;38.758;-9.164;2022-12-10T06:00:24;20.30;;;4.60;;
61523;SDS011;47393;38.758;-9.164;2022-12-10T06:02:25;25.83;;;5.05;;
61523;SDS011;47393;38.758;-9.164;2022-12-10T06:04:25;25.55;;;5.05;;
61523;SDS011;47393;38.758;-9.164;2022-12-10T06:06:36;33.45;;;5.20;;
61523;SDS011;47393;38.758;-9.164;2022-12-10T06:08:38;27.67;;;5.03;;
61523;SDS011;47393;38.758;-9.164;2022-12-10T06:10:41;29.08;;;4.80;;
61523;SDS011;47393;38.758;-9.164;2022-12-10T06:12:42;35.88;;;5.20;;
61523;SDS011;47393;38.758;-9.164;2022-12-10T06:14:43;34.45;;;5.72;;
61523;SDS011;47393;38.758;-9.164;2022-12-10T06:16:43;38.88;;;5.22;;
61523;SDS011;47393;38.758;-9.164;2022-12-10T06:18:44;22.08;;;4.50;;
61523;SDS011;47393;38.758;-9.164;2022-12-10T06:20:45;29.63;;;5.53;;
61523;SDS011;47393;38.758;-9.164;2022-12-10T06:22:46;30.20;;;5.22;;
61523;SDS011;47393;38.758;-9.164;2022-12-10T06:24:47;29.35;;;5.72;;
61523;SDS011;47393;38.758;-9.164;2022-12-10T06:26:47;24.20;;;4.28;;
61523;SDS011;47393;38.758;-9.164;2022-12-10T06:28:49;23.85;;;5.75;;
61523;SDS011;47393;38.758;-9.164;2022-12-10T06:30:50;30.33;;;4.97;;
61523;SDS011;47393;38.758;-9.164;2022-12-10T06:32:51;25.77;;;5.40;;
61523;SDS011;47393;38.758;-9.164;2022-12-10T06:34:52;22.15;;;5.03;;
61523;SDS011;47393;38.758;-9.164;2022-12-10T06:36:56;28.35;;;5.10;;
61523;SDS011;47393;38.758;-9.164;2022-12-10T06:38:57;31.58;;;4.95;;
61523;SDS011;47393;38.758;-9.164;2022-12-10T06:40:58;23.42;;;4.82;;
61523;SDS011;47393;38.758;-9.164;2022-12-10T06:43:01;42.40;;;5.85;;
61523;SDS011;47393;38.758;-9.164;2022-12-10T06:45:02;36.25;;;5.65;;
61523;SDS011;47393;38.758;-9.164;2022-12-10T06:47:03;25.25;;;5.00;;
61523;SDS011;47393;38.758;-9.164;2022-12-10T06:49:04;35.92;;;6.32;;
61523;SDS011;47393;38.758;-9.164;2022-12-10T06:53:09;32.13;;;5.82;;
61523;SDS011;47393;38.758;-9.164;2022-12-10T06:55:10;33.38;;;6.10;;
61523;SDS011;47393;38.758;-9.164;2022-12-10T06:57:11;28.77;;;6.30;;
61523;SDS011;47393;38.758;-9.164;2022-12-10T06:59:12;38.13;;;6.53;;
61523;SDS011;47393;38.758;-9.164;2022-12-10T07:01:18;28.25;;;6.93;;
61523;SDS011;47393;38.758;-9.164;2022-12-10T07:03:21;28.90;;;5.65;;
61523;SDS011;47393;38.758;-9.164;2022-12-10T07:05:22;31.27;;;6.15;;
61523;SDS011;47393;38.758;-9.164;2022-12-10T07:07:23;31.08;;;6.03;;
61523;SDS011;47393;38.758;-9.164;2022-12-10T07:09:24;41.70;;;7.93;;
61523;SDS011;47393;38.758;-9.164;2022-12-10T07:11:24;35.75;;;8.15;;
61523;SDS011;47393;38.758;-9.164;2022-12-10T07:13:25;38.65;;;7.80;;
61523;SDS011;47393;38.758;-9.164;2022-12-10T07:15:26;28.88;;;7.78;;
61523;SDS011;47393;38.758;-9.164;2022-12-10T07:17:28;41.38;;;8.20;;
61523;SDS011;47393;38.758;-9.164;2022-12-10T07:19:29;23.65;;;6.65;;
61523;SDS011;47393;38.758;-9.164;2022-12-10T07:21:31;38.13;;;7.10;;
61523;SDS011;47393;38.758;-9.164;2022-12-10T07:23:34;27.10;;;6.80;;
61523;SDS011;47393;38.758;-9.164;2022-12-10T07:25:35;30.60;;;6.72;;
61523;SDS011;47393;38.758;-9.164;2022-12-10T07:27:35;41.35;;;7.40;;
61523;SDS011;47393;38.758;-9.164;2022-12-10T07:29:36;35.40;;;7.38;;
61523;SDS011;47393;38.758;-9.164;2022-12-10T07:31:37;24.05;;;6.68;;
61523;SDS011;47393;38.758;-9.164;2022-12-10T07:33:38;52.38;;;7.53;;
61523;SDS011;47393;38.758;-9.164;2022-12-10T07:35:39;31.13;;;6.80;;
61523;SDS011;47393;38.758;-9.164;2022-12-10T07:37:40;31.80;;;6.38;;
61523;SDS011;47393;38.758;-9.164;2022-12-10T07:39:41;39.30;;;6.38;;
61523;SDS011;47393;38.758;-9.164;2022-12-10T07:41:44;42.38;;;6.25;;
61523;SDS011;47393;38.758;-9.164;2022-12-10T07:43:50;30.10;;;5.45;;
61523;SDS011;47393;38.758;-9.164;2022-12-10T07:45:51;31.58;;;5.70;;
61523;SDS011;47393;38.758;-9.164;2022-12-10T07:47:52;31.30;;;5.30;;
61523;SDS011;47393;38.758;-9.164;2022-12-10T07:49:53;38.50;;;6.63;;
61523;SDS011;47393;38.758;-9.164;2022-12-10T07:51:54;30.42;;;5.85;;
61523;SDS011;47393;38.758;-9.164;2022-12-10T07:53:55;30.73;;;6.20;;
61523;SDS011;47393;38.758;-9.164;2022-12-10T07:55:56;39.38;;;6.53;;
61523;SDS011;47393;38.758;-9.164;2022-12-10T07:57:56;32.95;;;6.30;;
61523;SDS011;47393;38.758;-9.164;2022-12-10T07:59:57;33.22;;;5.43;;
61523;SDS011;47393;38.758;-9.164;2022-12-10T08:01:58;24.83;;;5.03;;
61523;SDS011;47393;38.758;-9.164;2022-12-10T08:03:59;33.92;;;5.25;;
61523;SDS011;47393;38.758;-9.164;2022-12-10T08:06:08;27.52;;;5.35;;
61523;SDS011;47393;38.758;-9.164;2022-12-10T08:08:11;27.38;;;5.55;;
61523;SDS011;47393;38.758;-9.164;2022-12-10T08:10:12;36.70;;;5.35;;
61523;SDS011;47393;38.758;-9.164;2022-12-10T08:12:13;34.13;;;5.70;;
61523;SDS011;47393;38.758;-9.164;2022-12-10T08:14:14;27.88;;;5.38;;
61523;SDS011;47393;38.758;-9.164;2022-12-10T08:16:16;29.02;;;5.47;;
61523;SDS011;47393;38.758;-9.164;2022-12-10T08:18:19;33.75;;;6.32;;
61523;SDS011;47393;38.758;-9.164;2022-12-10T08:20:21;23.30;;;5.15;;
61523;SDS011;47393;38.758;-9.164;2022-12-10T08:22:23;25.92;;;4.70;;
61523;SDS011;47393;38.758;-9.164;2022-12-10T08:24:24;25.70;;;4.82;;
61523;SDS011;47393;38.758;-9.164;2022-12-10T08:26:26;21.00;;;4.05;;
61523;SDS011;47393;38.758;-9.164;2022-12-10T08:28:30;21.50;;;4.13;;
61523;SDS011;47393;38.758;-9.164;2022-12-10T08:30:39;13.00;;;2.75;;
61523;SDS011;47393;38.758;-9.164;2022-12-10T08:32:45;21.58;;;2.85;;
61523;SDS011;47393;38.758;-9.164;2022-12-10T08:34:46;16.35;;;2.60;;
61523;SDS011;47393;38.758;-9.164;2022-12-10T08:36:47;12.70;;;3.08;;
61523;SDS011;47393;38.758;-9.164;2022-12-10T08:38:47;15.00;;;3.28;;
61523;SDS011;47393;38.758;-9.164;2022-12-10T08:40:48;14.13;;;3.25;;
61523;SDS011;47393;38.758;-9.164;2022-12-10T08:42:51;13.10;;;2.80;;
61523;SDS011;47393;38.758;-9.164;2022-12-10T08:44:52;9.95;;;2.50;;
61523;SDS011;47393;38.758;-9.164;2022-12-10T08:46:52;12.40;;;2.85;;
61523;SDS011;47393;38.758;-9.164;2022-12-10T08:48:53;9.32;;;2.83;;
61523;SDS011;47393;38.758;-9.164;2022-12-10T08:50:58;14.70;;;2.47;;
61523;SDS011;47393;38.758;-9.164;2022-12-10T08:52:59;11.10;;;2.53;;
61523;SDS011;47393;38.758;-9.164;2022-12-10T08:55:00;9.75;;;2.35;;
61523;SDS011;47393;38.758;-9.164;2022-12-10T08:57:10;5.18;;;2.17;;
61523;SDS011;47393;38.758;-9.164;2022-12-10T08:59:13;6.28;;;2.45;;
61523;SDS011;47393;38.758;-9.164;2022-12-10T09:01:15;11.50;;;2.80;;
61523;SDS011;47393;38.758;-9.164;2022-12-10T09:03:20;11.35;;;2.53;;
61523;SDS011;47393;38.758;-9.164;2022-12-10T09:05:20;9.18;;;2.30;;
61523;SDS011;47393;38.758;-9.164;2022-12-10T09:07:21;8.40;;;2.45;;
61523;SDS011;47393;38.758;-9.164;2022-12-10T09:09:22;12.73;;;2.88;;
61523;SDS011;47393;38.758;-9.164;2022-12-10T09:11:24;10.07;;;2.45;;
61523;SDS011;47393;38.758;-9.164;2022-12-10T09:13:29;13.60;;;2.83;;
61523;SDS011;47393;38.758;-9.164;2022-12-10T09:17:34;8.38;;;3.05;;
61523;SDS011;47393;38.758;-9.164;2022-12-10T09:19:36;7.00;;;2.47;;
61523;SDS011;47393;38.758;-9.164;2022-12-10T09:21:36;11.07;;;2.25;;
61523;SDS011;47393;38.758;-9.164;2022-12-10T09:23:37;9.05;;;2.65;;
61523;SDS011;47393;38.758;-9.164;2022-12-10T09:25:39;16.65;;;2.88;;
61523;SDS011;47393;38.758;-9.164;2022-12-10T09:27:39;11.88;;;2.75;;
61523;SDS011;47393;38.758;-9.164;2022-12-10T09:29:40;15.82;;;2.90;;
61523;SDS011;47393;38.758;-9.164;2022-12-10T09:31:41;6.22;;;2.60;;
61523;SDS011;47393;38.758;-9.164;2022-12-10T09:33:42;12.18;;;3.33;;
61523;SDS011;47393;38.758;-9.164;2022-12-10T09:35:44;8.35;;;2.55;;
61523;SDS011;47393;38.758;-9.164;2022-12-10T09:37:45;10.73;;;3.00;;
61523;SDS011;47393;38.758;-9.164;2022-12-10T09:39:46;9.35;;;2.67;;
61523;SDS011;47393;38.758;-9.164;2022-12-10T09:41:53;7.20;;;2.45;;
61523;SDS011;47393;38.758;-9.164;2022-12-10T09:44:06;8.70;;;2.40;;
61523;SDS011;47393;38.758;-9.164;2022-12-10T09:48:30;6.75;;;2.30;;
61523;SDS011;47393;38.758;-9.164;2022-12-10T09:50:46;5.82;;;2.45;;
61523;SDS011;47393;38.758;-9.164;2022-12-10T09:52:55;11.75;;;2.75;;
61523;SDS011;47393;38.758;-9.164;2022-12-10T09:55:00;9.88;;;2.67;;
61523;SDS011;47393;38.758;-9.164;2022-12-10T09:57:10;10.60;;;3.40;;
61523;SDS011;47393;38.758;-9.164;2022-12-10T09:59:20;10.40;;;2.65;;
61523;SDS011;47393;38.758;-9.164;2022-12-10T10:04:30;5.85;;;2.70;;
61523;SDS011;47393;38.758;-9.164;2022-12-10T10:06:31;9.00;;;3.00;;
61523;SDS011;47393;38.758;-9.164;2022-12-10T10:08:47;12.70;;;2.60;;
61523;SDS011;47393;38.758;-9.164;2022-12-10T10:10:53;6.95;;;2.72;;
61523;SDS011;47393;38.758;-9.164;2022-12-10T10:12:55;8.40;;;2.80;;
61523;SDS011;47393;38.758;-9.164;2022-12-10T10:15:11;12.50;;;2.90;;
61523;SDS011;47393;38.758;-9.164;2022-12-10T10:19:49;14.23;;;2.63;;
61523;SDS011;47393;38.758;-9.164;2022-12-10T10:21:50;6.63;;;1.95;;
61523;SDS011;47393;38.758;-9.164;2022-12-10T10:23:52;12.10;;;2.38;;
61523;SDS011;47393;38.758;-9.164;2022-12-10T10:25:54;11.90;;;2.60;;
61523;SDS011;47393;38.758;-9.164;2022-12-10T10:27:55;10.18;;;2.38;;
61523;SDS011;47393;38.758;-9.164;2022-12-10T10:29:57;15.27;;;2.85;;
61523;SDS011;47393;38.758;-9.164;2022-12-10T10:32:17;10.73;;;2.88;;
61523;SDS011;47393;38.758;-9.164;2022-12-10T10:34:21;8.60;;;2.40;;
61523;SDS011;47393;38.758;-9.164;2022-12-10T10:36:24;7.85;;;2.35;;
61523;SDS011;47393;38.758;-9.164;2022-12-10T10:38:31;21.25;;;2.63;;
61523;SDS011;47393;38.758;-9.164;2022-12-10T10:42:44;7.25;;;2.05;;
61523;SDS011;47393;38.758;-9.164;2022-12-10T10:44:45;24.95;;;2.67;;
61523;SDS011;47393;38.758;-9.164;2022-12-10T10:46:48;14.23;;;2.53;;
61523;SDS011;47393;38.758;-9.164;2022-12-10T10:48:50;22.25;;;2.90;;
61523;SDS011;47393;38.758;-9.164;2022-12-10T10:50:55;19.90;;;3.55;;
61523;SDS011;47393;38.758;-9.164;2022-12-10T10:55:31;16.83;;;2.97;;
61523;SDS011;47393;38.758;-9.164;2022-12-10T10:57:36;15.65;;;3.25;;
61523;SDS011;47393;38.758;-9.164;2022-12-10T10:59:37;16.88;;;3.97;;
61523;SDS011;47393;38.758;-9.164;2022-12-10T11:01:52;18.45;;;3.40;;
61523;SDS011;47393;38.758;-9.164;2022-12-10T11:03:55;17.02;;;3.63;;
61523;SDS011;47393;38.758;-9.164;2022-12-10T11:05:58;12.35;;;3.80;;
61523;SDS011;47393;38.758;-9.164;2022-12-10T11:08:01;16.10;;;3.17;;
61523;SDS011;47393;38.758;-9.164;2022-12-10T11:10:17;9.45;;;2.72;;
61523;SDS011;47393;38.758;-9.164;2022-12-10T11:12:41;18.98;;;3.22;;
61523;SDS011;47393;38.758;-9.164;2022-12-10T11:14:44;15.13;;;3.25;;
61523;SDS011;47393;38.758;-9.164;2022-12-10T11:16:46;13.38;;;2.58;;
61523;SDS011;47393;38.758;-9.164;2022-12-10T11:19:00;14.50;;;3.08;;
61523;SDS011;47393;38.758;-9.164;2022-12-10T11:23:14;19.77;;;3.30;;
61523;SDS011;47393;38.758;-9.164;2022-12-10T11:25:15;15.20;;;2.92;;
61523;SDS011;47393;38.758;-9.164;2022-12-10T11:27:41;28.98;;;3.22;;
61523;SDS011;47393;38.758;-9.164;2022-12-10T11:29:53;10.75;;;3.00;;
61523;SDS011;47393;38.758;-9.164;2022-12-10T11:32:46;16.00;;;3.13;;
61523;SDS011;47393;38.758;-9.164;2022-12-10T11:37:05;23.13;;;3.35;;
61523;SDS011;47393;38.758;-9.164;2022-12-10T11:44:29;11.70;;;2.10;;
61523;SDS011;47393;38.758;-9.164;2022-12-10T11:49:21;12.63;;;2.65;;
61523;SDS011;47393;38.758;-9.164;2022-12-10T11:53:51;7.45;;;2.63;;
61523;SDS011;47393;38.758;-9.164;2022-12-10T12:08:05;9.65;;;2.13;;
61523;SDS011;47393;38.758;-9.164;2022-12-10T12:10:27;6.32;;;2.03;;
61523;SDS011;47393;38.758;-9.164;2022-12-10T12:12:39;13.55;;;2.72;;
61523;SDS011;47393;38.758;-9.164;2022-12-10T12:14:50;8.18;;;2.25;;
61523;SDS011;47393;38.758;-9.164;2022-12-10T12:17:02;14.90;;;3.08;;
61523;SDS011;47393;38.758;-9.164;2022-12-10T12:21:17;17.90;;;3.42;;
61523;SDS011;47393;38.758;-9.164;2022-12-10T12:23:41;14.93;;;3.53;;
61523;SDS011;47393;38.758;-9.164;2022-12-10T12:25:49;11.88;;;4.00;;
61523;SDS011;47393;38.758;-9.164;2022-12-10T12:28:05;10.77;;;2.95;;
61523;SDS011;47393;38.758;-9.164;2022-12-10T12:30:40;12.35;;;2.70;;
61523;SDS011;47393;38.758;-9.164;2022-12-10T12:33:01;7.90;;;2.78;;
61523;SDS011;47393;38.758;-9.164;2022-12-10T12:35:55;16.83;;;2.78;;
61523;SDS011;47393;38.758;-9.164;2022-12-10T12:37:55;12.52;;;3.20;;
61523;SDS011;47393;38.758;-9.164;2022-12-10T12:46:26;12.93;;;3.53;;
61523;SDS011;47393;38.758;-9.164;2022-12-10T12:48:44;12.68;;;3.22;;
61523;SDS011;47393;38.758;-9.164;2022-12-10T12:50:47;10.65;;;2.75;;
61523;SDS011;47393;38.758;-9.164;2022-12-10T12:52:54;9.05;;;3.22;;
61523;SDS011;47393;38.758;-9.164;2022-12-10T12:55:00;10.98;;;2.95;;
61523;SDS011;47393;38.758;-9.164;2022-12-10T12:57:14;9.63;;;2.42;;
61523;SDS011;47393;38.758;-9.164;2022-12-10T12:59:39;22.35;;;3.30;;
61523;SDS011;47393;38.758;-9.164;2022-12-10T13:04:07;7.03;;;2.53;;
61523;SDS011;47393;38.758;-9.164;2022-12-10T13:06:16;8.88;;;2.75;;
61523;SDS011;47393;38.758;-9.164;2022-12-10T13:08:30;14.23;;;3.30;;
61523;SDS011;47393;38.758;-9.164;2022-12-10T13:10:42;14.23;;;3.22;;
61523;SDS011;47393;38.758;-9.164;2022-12-10T13:15:21;10.70;;;2.55;;
61523;SDS011;47393;38.758;-9.164;2022-12-10T13:17:35;15.70;;;2.55;;
61523;SDS011;47393;38.758;-9.164;2022-12-10T13:19:39;12.10;;;3.08;;
61523;SDS011;47393;38.758;-9.164;2022-12-10T13:24:05;12.57;;;2.88;;
61523;SDS011;47393;38.758;-9.164;2022-12-10T13:26:33;15.77;;;2.88;;
61523;SDS011;47393;38.758;-9.164;2022-12-10T13:31:32;12.67;;;3.43;;
61523;SDS011;47393;38.758;-9.164;2022-12-10T13:33:52;8.88;;;2.63;;